createdAt,value
2022-12-15T00:02:15.442Z,-0.99
2022-12-15T00:05:01.003Z,-0.94
2022-12-15T00:07:46.338Z,-0.93
2022-12-15T00:10:31.594Z,-0.88
2022-12-15T00:13:16.838Z,-0.84
2022-12-15T00:16:05.000Z,-0.79
2022-12-15T00:18:50.418Z,-0.72
2022-12-15T00:21:35.725Z,-0.68
2022-12-15T00:24:20.981Z,-0.66
2022-12-15T00:27:06.158Z,-0.67
2022-12-15T00:29:51.507Z,-0.67
2022-12-15T00:32:36.401Z,-0.66
2022-12-15T00:35:21.836Z,-0.63
2022-12-15T00:38:06.827Z,-0.59
2022-12-15T00:40:33.538Z,-0.52
2022-12-15T00:43:00.145Z,-0.52
2022-12-15T00:45:46.801Z,-0.50
2022-12-15T00:48:13.519Z,-0.58
2022-12-15T00:50:52.313Z,-0.53
2022-12-15T00:53:41.491Z,-0.55
2022-12-15T00:56:27.687Z,-0.56
2022-12-15T00:59:13.718Z,-0.53
2022-12-15T01:01:59.288Z,-0.51
2022-12-15T01:04:45.006Z,-0.54
2022-12-15T01:07:30.082Z,-0.41
2022-12-15T01:10:15.327Z,-0.48
2022-12-15T01:13:00.803Z,-0.50
2022-12-15T01:15:46.094Z,-0.39
2022-12-15T01:18:31.258Z,-0.38
2022-12-15T01:21:06.683Z,-0.34
2022-12-15T01:23:33.866Z,-0.40
2022-12-15T01:26:01.042Z,-0.38
2022-12-15T01:28:28.050Z,-0.30
2022-12-15T01:30:54.975Z,-0.29
2022-12-15T01:33:22.166Z,-0.25
2022-12-15T01:36:01.838Z,-0.22
2022-12-15T01:38:29.023Z,-0.20
2022-12-15T01:40:59.452Z,-0.22
2022-12-15T01:43:30.467Z,-0.26
2022-12-15T01:46:09.151Z,-0.19
2022-12-15T01:48:38.083Z,-0.20
2022-12-15T01:51:23.816Z,-0.14
2022-12-15T01:53:56.078Z,-0.18
2022-12-15T01:56:24.379Z,-0.17
2022-12-15T01:58:53.906Z,-0.13
2022-12-15T02:01:20.821Z,-0.13
2022-12-15T02:03:48.392Z,-0.08
2022-12-15T02:06:15.910Z,-0.11
2022-12-15T02:08:45.450Z,-0.16
2022-12-15T02:11:24.118Z,-0.15
2022-12-15T02:14:07.780Z,-0.05
2022-12-15T02:16:57.683Z,-0.05
2022-12-15T02:19:58.606Z,-0.04
2022-12-15T02:22:33.956Z,-0.04
2022-12-15T02:25:00.563Z,-0.02
2022-12-15T02:27:42.126Z,0.00
2022-12-15T02:30:21.292Z,-0.06
2022-12-15T02:32:47.865Z,0.00
2022-12-15T02:35:20.992Z,0.04
2022-12-15T02:37:49.858Z,0.07
2022-12-15T02:40:17.197Z,0.00
2022-12-15T02:42:51.781Z,0.07
2022-12-15T02:45:33.284Z,0.06
2022-12-15T02:48:12.395Z,0.05
2022-12-15T02:50:51.171Z,0.09
2022-12-15T02:53:30.288Z,0.14
2022-12-15T02:56:26.398Z,0.12
2022-12-15T02:58:53.013Z,0.15
2022-12-15T03:01:26.757Z,0.08
2022-12-15T03:03:54.015Z,0.09
2022-12-15T03:06:20.727Z,0.22
2022-12-15T03:08:47.447Z,0.14
2022-12-15T03:11:14.088Z,0.12
2022-12-15T03:13:40.807Z,0.07
2022-12-15T03:16:07.621Z,0.02
2022-12-15T03:18:34.258Z,0.07
2022-12-15T03:21:00.997Z,0.08
2022-12-15T03:23:27.856Z,0.08
2022-12-15T03:25:55.783Z,0.11
2022-12-15T03:28:22.918Z,0.06
2022-12-15T03:30:50.508Z,0.06
2022-12-15T03:33:18.041Z,0.03
2022-12-15T03:35:44.786Z,0.02
2022-12-15T03:38:11.418Z,0.01
2022-12-15T03:40:38.037Z,-0.04
2022-12-15T03:43:04.682Z,-0.02
2022-12-15T03:45:31.336Z,0.00
2022-12-15T03:47:58.227Z,0.00
2022-12-15T03:50:27.350Z,-0.02
2022-12-15T03:52:58.503Z,0.06
2022-12-15T03:55:25.962Z,0.05
2022-12-15T03:57:52.829Z,0.01
2022-12-15T04:00:20.786Z,0.00
2022-12-15T04:02:50.395Z,0.04
2022-12-15T04:05:26.042Z,0.02
2022-12-15T04:07:53.702Z,-0.01
2022-12-15T04:10:20.402Z,-0.08
2022-12-15T04:12:47.146Z,-0.06
2022-12-15T04:15:14.386Z,0.01
2022-12-15T04:17:41.578Z,0.08
2022-12-15T04:20:11.376Z,0.03
2022-12-15T04:22:39.874Z,0.01
2022-12-15T04:25:33.867Z,-0.01
2022-12-15T04:28:19.232Z,0.01
2022-12-15T04:31:08.129Z,0.05
2022-12-15T04:33:54.527Z,0.12
2022-12-15T04:36:40.155Z,0.06
2022-12-15T04:39:25.333Z,0.12
2022-12-15T04:42:11.823Z,0.06
2022-12-15T04:44:57.255Z,0.10
2022-12-15T04:47:42.439Z,0.09
2022-12-15T04:50:27.678Z,0.04
2022-12-15T04:53:12.864Z,-0.01
2022-12-15T04:55:58.101Z,-0.03
2022-12-15T04:58:43.286Z,0.04
2022-12-15T05:01:28.839Z,0.02
2022-12-15T05:04:14.133Z,0.04
2022-12-15T05:06:59.338Z,-0.01
2022-12-15T05:09:44.291Z,0.08
2022-12-15T05:12:29.525Z,0.13
2022-12-15T05:15:14.877Z,0.05
2022-12-15T05:18:00.226Z,0.11
2022-12-15T05:20:45.237Z,0.14
2022-12-15T05:23:35.468Z,0.05
2022-12-15T05:26:20.448Z,0.08
2022-12-15T05:29:05.706Z,0.11
2022-12-15T05:31:50.977Z,0.02
2022-12-15T05:34:28.702Z,-0.05
2022-12-15T05:36:56.783Z,-0.07
2022-12-15T05:39:24.334Z,-0.04
2022-12-15T05:41:51.983Z,-0.02
2022-12-15T05:44:18.736Z,-0.03
2022-12-15T05:46:45.851Z,0.05
2022-12-15T05:49:15.437Z,0.10
2022-12-15T05:51:43.619Z,0.08
2022-12-15T05:54:11.646Z,0.07
2022-12-15T05:56:38.382Z,0.07
2022-12-15T05:59:05.321Z,0.12
2022-12-15T06:01:32.127Z,-0.04
2022-12-15T06:03:59.315Z,-0.06
2022-12-15T06:06:26.059Z,0.07
2022-12-15T06:08:52.674Z,-0.11
2022-12-15T06:11:20.086Z,-0.28
2022-12-15T06:13:46.933Z,-0.39
2022-12-15T06:16:18.734Z,-0.41
2022-12-15T06:18:50.264Z,-0.42
2022-12-15T06:21:28.155Z,-0.38
2022-12-15T06:23:55.754Z,-0.35
2022-12-15T06:26:25.530Z,-0.31
2022-12-15T06:28:52.712Z,-0.25
2022-12-15T06:31:22.823Z,-0.29
2022-12-15T06:33:52.503Z,-0.31
2022-12-15T06:36:25.922Z,-0.24
2022-12-15T06:38:52.685Z,-0.22
2022-12-15T06:41:21.380Z,-0.30
2022-12-15T06:43:57.923Z,-0.33
2022-12-15T06:46:25.885Z,-0.26
2022-12-15T06:48:53.296Z,-0.27
2022-12-15T06:51:20.535Z,-0.25
2022-12-15T06:53:54.117Z,-0.19
2022-12-15T06:56:33.686Z,-0.16
2022-12-15T06:59:02.136Z,-0.15
2022-12-15T07:01:29.636Z,-0.03
2022-12-15T07:03:57.140Z,-0.02
2022-12-15T07:06:24.004Z,0.09
2022-12-15T07:08:53.824Z,0.11
2022-12-15T07:11:21.670Z,0.09
2022-12-15T07:13:52.398Z,0.10
2022-12-15T07:16:19.690Z,0.11
2022-12-15T07:18:46.385Z,0.22
2022-12-15T07:21:13.338Z,0.29
2022-12-15T07:23:54.209Z,0.29
2022-12-15T07:26:22.114Z,0.27
2022-12-15T07:28:48.702Z,0.23
2022-12-15T07:31:15.807Z,0.16
2022-12-15T07:33:42.771Z,0.26
2022-12-15T07:36:09.650Z,0.29
2022-12-15T07:38:36.869Z,0.39
2022-12-15T07:41:05.158Z,0.42
2022-12-15T07:43:32.820Z,0.42
2022-12-15T07:46:00.183Z,0.46
2022-12-15T07:48:27.438Z,0.47
2022-12-15T07:51:02.741Z,0.58
2022-12-15T07:53:35.019Z,0.54
2022-12-15T07:56:10.123Z,0.57
2022-12-15T07:58:37.965Z,0.58
2022-12-15T08:01:07.033Z,0.61
2022-12-15T08:03:34.658Z,0.62
2022-12-15T08:06:06.195Z,0.66
2022-12-15T08:08:35.554Z,0.59
2022-12-15T08:11:06.680Z,0.60
2022-12-15T08:16:21.313Z,0.74
2022-12-15T08:18:48.812Z,0.86
2022-12-15T08:21:15.667Z,0.85
2022-12-15T08:23:42.330Z,0.95
2022-12-15T08:26:14.841Z,1.08
2022-12-15T08:28:42.125Z,1.01
2022-12-15T08:34:11.257Z,1.07
2022-12-15T08:36:38.885Z,1.25
2022-12-15T08:39:05.700Z,1.35
2022-12-15T08:41:33.004Z,1.46
2022-12-15T08:44:00.802Z,1.56
2022-12-15T08:46:29.735Z,1.73
2022-12-15T08:48:57.373Z,1.94
2022-12-15T08:51:25.849Z,2.08
2022-12-15T08:53:56.330Z,2.16
2022-12-15T08:56:24.260Z,2.16
2022-12-15T09:14:12.305Z,2.30
2022-12-15T09:16:50.569Z,2.38
2022-12-15T09:19:23.844Z,2.30
2022-12-15T09:21:51.049Z,2.34
2022-12-15T09:24:28.768Z,2.35
2022-12-15T09:26:59.540Z,2.48
2022-12-15T09:29:26.279Z,2.51
2022-12-15T09:31:52.931Z,2.59
2022-12-15T09:34:19.627Z,2.66
2022-12-15T09:36:46.683Z,2.71
2022-12-15T09:39:14.485Z,2.69
2022-12-15T09:41:57.334Z,2.78
2022-12-15T09:44:25.146Z,2.90
2022-12-15T09:50:03.040Z,3.12
2022-12-15T09:52:43.930Z,3.30
2022-12-15T09:55:22.527Z,3.17
2022-12-15T09:58:00.666Z,3.19
2022-12-15T10:00:43.543Z,3.10
2022-12-15T10:03:47.279Z,3.09
2022-12-15T10:06:33.064Z,2.79
2022-12-15T10:09:29.625Z,2.07
2022-12-15T10:12:02.958Z,1.91
2022-12-15T10:14:35.508Z,2.20
2022-12-15T10:17:11.454Z,2.12
2022-12-15T10:19:53.385Z,1.99
2022-12-15T10:22:24.723Z,2.29
2022-12-15T10:25:10.221Z,2.07
2022-12-15T10:27:56.090Z,2.31
2022-12-15T10:30:23.280Z,2.43
2022-12-15T10:33:03.495Z,2.31
2022-12-15T10:35:37.523Z,2.53
2022-12-15T10:38:09.552Z,2.63
2022-12-15T10:40:55.309Z,2.47
2022-12-15T10:43:28.179Z,2.60
2022-12-15T10:46:15.174Z,2.57
2022-12-15T10:48:54.178Z,2.41
2022-12-15T10:51:33.465Z,2.66
2022-12-15T10:54:15.433Z,2.76
2022-12-15T10:57:16.602Z,2.91
2022-12-15T10:59:46.786Z,2.84
2022-12-15T11:02:23.776Z,2.82
2022-12-15T11:05:18.863Z,2.56
2022-12-15T11:07:53.240Z,2.46
2022-12-15T12:53:33.276Z,2.19
2022-12-15T12:56:00.205Z,2.29
2022-12-15T12:58:32.749Z,2.28
2022-12-15T13:01:05.751Z,2.31
2022-12-15T13:03:32.858Z,2.32
2022-12-15T13:05:59.809Z,2.25
2022-12-15T13:08:29.028Z,2.24
2022-12-15T23:26:51.356Z,-0.20
2022-12-15T23:29:19.638Z,-0.18
2022-12-15T23:32:03.406Z,-0.16
2022-12-15T23:34:32.635Z,-0.16
